createdAt,value
2019-01-10T00:00:11.975Z,22.71
2019-01-10T00:02:40.278Z,22.70
2019-01-10T00:05:10.596Z,22.67
2019-01-10T00:07:38.977Z,22.66
2019-01-10T00:10:10.207Z,22.63
2019-01-10T00:12:39.534Z,22.60
2019-01-10T00:15:11.226Z,22.60
2019-01-10T00:17:39.664Z,22.58
2019-01-10T00:20:10.693Z,22.54
2019-01-10T00:22:39.068Z,22.54
2019-01-10T00:25:09.908Z,22.52
2019-01-10T00:27:38.281Z,22.52
2019-01-10T00:30:12.848Z,22.47
2019-01-10T00:32:41.220Z,22.47
2019-01-10T00:35:10.641Z,22.45
2019-01-10T00:37:39.011Z,22.43
2019-01-10T00:40:12.811Z,22.40
2019-01-10T00:42:49.253Z,22.39
2019-01-10T00:45:18.516Z,22.37
2019-01-10T00:47:48.495Z,22.35
2019-01-10T00:50:22.432Z,22.32
2019-01-10T00:52:50.806Z,22.31
2019-01-10T00:55:19.178Z,22.30
2019-01-10T00:57:47.708Z,22.27
2019-01-10T01:00:19.326Z,22.26
2019-01-10T01:02:47.793Z,22.24
2019-01-10T01:05:16.604Z,22.23
2019-01-10T01:07:45.065Z,22.22
2019-01-10T01:10:16.395Z,22.19
2019-01-10T01:12:44.797Z,22.18
2019-01-10T01:15:15.412Z,22.17
2019-01-10T01:17:43.869Z,22.14
2019-01-10T01:20:14.895Z,22.12
2019-01-10T01:22:43.284Z,22.11
2019-01-10T01:25:12.569Z,22.09
2019-01-10T01:27:40.953Z,22.08
2019-01-10T01:30:12.373Z,22.05
2019-01-10T01:32:40.757Z,22.03
2019-01-10T01:35:09.268Z,22.02
2019-01-10T01:37:37.728Z,22.00
2019-01-10T01:40:11.557Z,22.00
2019-01-10T01:42:39.948Z,21.98
2019-01-10T01:45:10.759Z,21.95
2019-01-10T01:47:39.218Z,21.95
2019-01-10T01:50:10.641Z,21.93
2019-01-10T01:52:39.022Z,21.92
2019-01-10T01:55:08.607Z,21.90
2019-01-10T01:57:36.998Z,21.89
2019-01-10T02:00:19.638Z,21.88
2019-01-10T02:02:48.020Z,21.85
2019-01-10T02:05:16.671Z,21.84
2019-01-10T02:07:45.186Z,21.81
2019-01-10T02:10:25.163Z,21.81
2019-01-10T02:12:53.548Z,21.80
2019-01-10T02:15:22.046Z,21.78
2019-01-10T02:17:50.426Z,21.76
2019-01-10T02:20:19.262Z,21.74
2019-01-10T02:22:47.648Z,21.73
2019-01-10T02:25:16.962Z,21.72
2019-01-10T02:27:45.411Z,21.71
2019-01-10T02:30:22.779Z,21.70
2019-01-10T02:32:51.172Z,21.69
2019-01-10T02:35:20.065Z,21.65
2019-01-10T02:37:48.631Z,21.64
2019-01-10T02:40:17.627Z,21.63
2019-01-10T02:42:46.008Z,21.62
2019-01-10T02:45:16.211Z,21.61
2019-01-10T02:47:44.589Z,21.60
2019-01-10T02:50:21.092Z,21.59
2019-01-10T02:52:50.441Z,21.57
2019-01-10T02:55:18.868Z,21.55
2019-01-10T02:57:47.246Z,21.55
2019-01-10T03:00:23.325Z,21.55
2019-01-10T03:02:51.802Z,21.54
2019-01-10T03:05:20.703Z,21.52
2019-01-10T03:07:49.068Z,21.50
2019-01-10T03:10:20.286Z,21.49
2019-01-10T03:12:48.651Z,21.49
2019-01-10T03:15:17.033Z,21.47
2019-01-10T03:17:45.405Z,21.45
2019-01-10T03:20:16.765Z,21.44
2019-01-10T03:22:45.137Z,21.44
2019-01-10T03:25:13.571Z,21.43
2019-01-10T03:27:41.946Z,21.40
2019-01-10T03:30:16.133Z,21.41
2019-01-10T03:32:44.508Z,21.39
2019-01-10T03:35:13.131Z,21.38
2019-01-10T03:37:41.508Z,21.35
2019-01-10T03:40:15.363Z,21.34
2019-01-10T03:42:43.816Z,21.33
2019-01-10T03:45:14.529Z,21.31
2019-01-10T03:47:42.892Z,21.30
2019-01-10T03:50:13.110Z,21.29
2019-01-10T03:52:41.539Z,21.28
2019-01-10T03:55:10.156Z,21.28
2019-01-10T03:57:38.524Z,21.26
2019-01-10T04:00:15.715Z,21.25
2019-01-10T04:02:44.147Z,21.23
2019-01-10T04:05:12.593Z,21.21
2019-01-10T04:07:40.973Z,21.20
2019-01-10T04:10:11.310Z,21.19
2019-01-10T04:12:39.661Z,21.18
2019-01-10T04:15:09.790Z,21.17
2019-01-10T04:17:38.155Z,21.17
2019-01-10T04:20:09.179Z,21.16
2019-01-10T04:22:37.561Z,21.13
2019-01-10T04:25:07.179Z,21.13
2019-01-10T04:27:35.546Z,21.11
2019-01-10T04:30:09.520Z,21.10
2019-01-10T04:32:37.888Z,21.10
2019-01-10T04:35:06.695Z,21.10
2019-01-10T04:37:35.071Z,21.07
2019-01-10T04:40:05.290Z,21.05
2019-01-10T04:42:33.664Z,21.04
2019-01-10T04:45:02.091Z,21.03
2019-01-10T04:47:32.489Z,21.03
2019-01-10T04:50:00.505Z,21.02
2019-01-10T04:52:28.875Z,21.02
2019-01-10T04:54:57.259Z,21.01
2019-01-10T04:57:25.621Z,21.00
2019-01-10T04:59:54.007Z,20.99
2019-01-10T05:02:22.373Z,21.00
2019-01-10T05:04:51.486Z,20.98
2019-01-10T05:07:19.861Z,20.98
2019-01-10T05:09:48.217Z,20.96
2019-01-10T05:12:16.596Z,20.97
2019-01-10T05:14:44.972Z,20.96
2019-01-10T05:17:13.353Z,20.95
2019-01-10T05:19:41.723Z,20.94
2019-01-10T05:22:10.107Z,20.94
2019-01-10T05:24:38.489Z,20.94
2019-01-10T05:27:06.860Z,20.93
2019-01-10T05:29:35.238Z,20.93
2019-01-10T05:32:03.619Z,20.93
2019-01-10T05:34:31.995Z,20.92
2019-01-10T05:37:00.366Z,20.89
2019-01-10T05:39:28.732Z,20.89
2019-01-10T05:41:57.110Z,20.88
2019-01-10T05:44:26.693Z,20.88
2019-01-10T05:46:55.241Z,20.88
2019-01-10T05:49:23.607Z,20.88
2019-01-10T05:51:52.022Z,20.87
2019-01-10T05:54:20.653Z,20.86
2019-01-10T05:56:49.133Z,20.85
2019-01-10T05:59:17.497Z,20.86
2019-01-10T06:01:45.880Z,20.85
2019-01-10T06:04:14.246Z,20.85
2019-01-10T06:06:42.627Z,20.86
2019-01-10T06:09:11.004Z,20.85
2019-01-10T06:11:39.382Z,20.84
2019-01-10T06:14:07.751Z,20.83
2019-01-10T06:16:36.133Z,20.84
2019-01-10T06:19:04.637Z,20.83
2019-01-10T06:21:33.027Z,20.82
2019-01-10T06:24:01.394Z,20.82
2019-01-10T06:26:29.767Z,20.81
2019-01-10T06:28:58.141Z,20.81
2019-01-10T06:31:26.518Z,20.79
2019-01-10T06:33:54.890Z,20.77
2019-01-10T06:36:23.257Z,20.76
2019-01-10T06:38:52.442Z,20.75
2019-01-10T06:41:20.883Z,20.74
2019-01-10T06:43:49.273Z,20.73
2019-01-10T06:46:17.639Z,20.73
2019-01-10T06:48:46.021Z,20.70
2019-01-10T06:51:14.384Z,20.70
2019-01-10T06:53:42.773Z,20.68
2019-01-10T06:56:11.149Z,20.67
2019-01-10T06:58:39.647Z,20.66
2019-01-10T07:01:07.966Z,20.65
2019-01-10T07:03:36.349Z,20.65
2019-01-10T07:06:04.718Z,20.63
2019-01-10T07:08:33.092Z,20.62
2019-01-10T07:11:01.460Z,20.61
2019-01-10T07:13:29.828Z,20.61
2019-01-10T07:15:58.193Z,20.59
2019-01-10T07:18:26.837Z,20.57
2019-01-10T07:20:55.227Z,20.57
2019-01-10T07:23:23.589Z,20.55
2019-01-10T07:25:55.063Z,20.54
2019-01-10T07:28:23.729Z,20.53
2019-01-10T07:30:54.543Z,20.54
2019-01-10T07:33:23.016Z,20.53
2019-01-10T07:35:55.673Z,20.52
2019-01-10T07:38:24.059Z,20.51
2019-01-10T07:40:53.052Z,20.51
2019-01-10T07:43:22.572Z,20.50
2019-01-10T07:45:50.941Z,20.50
2019-01-10T07:48:19.319Z,20.51
2019-01-10T07:50:47.686Z,20.52
2019-01-10T07:53:16.210Z,20.51
2019-01-10T07:55:44.585Z,20.51
2019-01-10T07:58:12.967Z,20.53
2019-01-10T08:00:41.410Z,20.51
2019-01-10T08:03:09.783Z,20.53
2019-01-10T08:05:38.144Z,20.51
2019-01-10T08:08:07.772Z,20.48
2019-01-10T08:10:36.619Z,20.54
2019-01-10T08:13:05.325Z,20.54
2019-01-10T08:15:33.714Z,20.52
2019-01-10T08:18:02.082Z,20.52
2019-01-10T08:20:30.472Z,20.54
2019-01-10T08:22:58.859Z,20.53
2019-01-10T08:25:28.000Z,20.57
2019-01-10T08:27:56.357Z,20.54
2019-01-10T08:30:25.170Z,20.55
2019-01-10T08:32:53.541Z,20.57
2019-01-10T08:35:23.178Z,20.56
2019-01-10T08:37:51.612Z,20.61
2019-01-10T08:40:20.054Z,20.66
2019-01-10T08:42:48.491Z,20.66
2019-01-10T08:45:21.727Z,20.65
2019-01-10T08:47:47.023Z,20.64
2019-01-10T08:50:18.382Z,20.64
2019-01-10T08:52:46.981Z,20.64
2019-01-10T08:55:15.363Z,20.66
2019-01-10T08:57:43.743Z,20.67
2019-01-10T09:00:15.166Z,20.68
2019-01-10T09:02:43.681Z,20.69
2019-01-10T09:05:12.394Z,20.73
2019-01-10T09:07:40.751Z,20.74
2019-01-10T09:10:12.163Z,20.73
2019-01-10T09:12:40.528Z,20.74
2019-01-10T09:15:09.749Z,20.75
2019-01-10T09:17:38.127Z,20.73
2019-01-10T09:20:09.912Z,20.74
2019-01-10T09:22:38.280Z,20.75
2019-01-10T09:25:07.092Z,20.77
2019-01-10T09:27:35.475Z,20.76
2019-01-10T09:30:05.704Z,20.77
2019-01-10T09:32:34.086Z,20.80
2019-01-10T09:35:02.474Z,20.81
2019-01-10T09:37:30.850Z,20.81
2019-01-10T09:39:59.217Z,20.81
2019-01-10T09:42:27.580Z,20.82
2019-01-10T09:44:55.951Z,20.85
2019-01-10T09:47:24.336Z,20.87
2019-01-10T09:49:52.710Z,20.87
2019-01-10T09:52:21.079Z,20.88
2019-01-10T09:54:49.448Z,20.88
2019-01-10T09:57:17.826Z,20.92
2019-01-10T09:59:46.208Z,20.94
2019-01-10T10:02:14.579Z,20.92
2019-01-10T10:04:42.957Z,20.96
2019-01-10T10:07:11.717Z,20.98
2019-01-10T10:09:40.087Z,21.03
2019-01-10T10:12:08.474Z,21.03
2019-01-10T10:14:36.843Z,21.07
2019-01-10T10:17:05.244Z,21.09
2019-01-10T10:19:33.613Z,21.12
2019-01-10T10:22:01.998Z,21.14
2019-01-10T10:24:30.359Z,21.16
2019-01-10T10:26:58.756Z,21.17
2019-01-10T10:29:27.141Z,21.19
2019-01-10T10:31:55.517Z,21.22
2019-01-10T10:34:24.762Z,21.27
2019-01-10T10:36:53.388Z,21.27
2019-01-10T10:39:21.758Z,21.30
2019-01-10T10:41:50.147Z,21.26
2019-01-10T10:44:18.514Z,21.28
2019-01-10T10:46:47.705Z,21.32
2019-01-10T10:49:16.079Z,21.38
2019-01-10T10:51:44.527Z,21.43
2019-01-10T10:54:12.894Z,21.46
2019-01-10T10:56:41.269Z,21.47
2019-01-10T10:59:09.643Z,21.51
2019-01-10T11:01:38.090Z,21.53
2019-01-10T11:04:06.816Z,21.57
2019-01-10T11:06:35.193Z,21.59
2019-01-10T11:09:09.266Z,21.67
2019-01-10T11:11:35.332Z,21.76
2019-01-10T11:14:03.722Z,21.77
2019-01-10T11:16:32.101Z,21.75
2019-01-10T11:19:00.504Z,21.73
2019-01-10T11:21:28.941Z,21.73
2019-01-10T11:23:57.403Z,21.76
2019-01-10T11:26:25.789Z,21.76
2019-01-10T11:28:54.169Z,21.76
2019-01-10T11:31:22.549Z,21.75
2019-01-10T11:33:50.993Z,21.76
2019-01-10T11:36:19.460Z,21.78
2019-01-10T11:38:47.910Z,21.78
2019-01-10T11:41:16.270Z,21.84
2019-01-10T11:43:44.789Z,21.78
2019-01-10T11:46:19.445Z,21.78
2019-01-10T11:48:43.395Z,21.85
2019-01-10T11:51:11.826Z,21.86
2019-01-10T11:53:40.200Z,21.88
2019-01-10T11:56:08.587Z,21.91
2019-01-10T11:58:36.954Z,21.92
2019-01-10T12:01:05.862Z,21.93
2019-01-10T12:03:34.246Z,21.94
2019-01-10T12:06:02.622Z,21.94
2019-01-10T12:08:31.014Z,21.96
2019-01-10T12:10:59.383Z,22.06
2019-01-10T12:13:27.772Z,22.06
2019-01-10T12:15:56.269Z,22.20
2019-01-10T12:18:24.638Z,22.20
2019-01-10T12:20:53.087Z,22.16
2019-01-10T12:23:21.457Z,22.16
2019-01-10T12:25:49.827Z,22.26
2019-01-10T12:28:18.213Z,22.35
2019-01-10T12:30:46.577Z,22.36
2019-01-10T12:33:14.951Z,22.36
2019-01-10T12:35:43.331Z,22.39
2019-01-10T12:38:11.721Z,22.38
2019-01-10T12:40:40.103Z,22.39
2019-01-10T12:43:08.476Z,22.41
2019-01-10T12:45:36.930Z,22.39
2019-01-10T12:48:05.359Z,22.31
2019-01-10T12:50:34.039Z,22.22
2019-01-10T12:53:02.400Z,22.14
2019-01-10T12:55:31.000Z,22.08
2019-01-10T12:57:59.482Z,22.03
2019-01-10T13:00:27.860Z,21.98
2019-01-10T13:02:56.954Z,21.96
2019-01-10T13:05:26.466Z,21.94
2019-01-10T13:08:03.105Z,21.94
2019-01-10T13:10:25.184Z,21.93
2019-01-10T13:12:53.549Z,21.90
2019-01-10T13:15:23.967Z,21.89
2019-01-10T13:17:52.586Z,21.86
2019-01-10T13:20:21.114Z,21.85
2019-01-10T13:22:49.641Z,21.83
2019-01-10T13:25:19.616Z,21.82
2019-01-10T13:27:48.424Z,21.80
2019-01-10T13:30:24.504Z,21.82
2019-01-10T13:32:53.237Z,21.81
2019-01-10T13:35:21.687Z,21.81
2019-01-10T13:37:50.121Z,21.75
2019-01-10T13:40:18.915Z,21.75
2019-01-10T13:42:47.400Z,21.78
2019-01-10T13:45:17.328Z,21.75
2019-01-10T13:47:47.616Z,21.74
2019-01-10T13:50:18.231Z,21.76
2019-01-10T13:52:46.617Z,21.77
2019-01-10T13:55:17.242Z,21.78
2019-01-10T13:57:45.682Z,21.76
2019-01-10T14:00:19.925Z,21.75
2019-01-10T14:02:48.431Z,21.73
2019-01-10T14:05:17.054Z,21.72
2019-01-10T14:07:45.556Z,21.72
2019-01-10T14:10:16.158Z,21.71
2019-01-10T14:12:44.761Z,21.70
2019-01-10T14:15:18.633Z,21.70
2019-01-10T14:17:47.138Z,21.68
2019-01-10T14:20:15.885Z,21.67
2019-01-10T14:22:44.248Z,21.67
2019-01-10T14:25:12.767Z,21.67
2019-01-10T14:27:41.121Z,21.64
2019-01-10T14:30:24.328Z,21.63
2019-01-10T14:32:52.694Z,21.66
2019-01-10T14:35:21.404Z,21.65
2019-01-10T14:37:49.929Z,21.61
2019-01-10T14:40:18.798Z,21.61
2019-01-10T14:42:47.180Z,21.62
2019-01-10T14:45:18.234Z,21.63
2019-01-10T14:47:46.693Z,21.64
2019-01-10T14:50:17.802Z,21.64
2019-01-10T14:52:46.250Z,21.63
2019-01-10T14:55:15.154Z,21.61
2019-01-10T14:57:43.661Z,21.62
2019-01-10T15:00:18.058Z,21.63
2019-01-10T15:02:46.509Z,21.61
2019-01-10T15:05:14.885Z,21.60
2019-01-10T15:07:43.339Z,21.58
2019-01-10T15:10:12.240Z,21.57
2019-01-10T15:12:41.929Z,21.56
2019-01-10T15:15:13.607Z,21.55
2019-01-10T15:17:42.110Z,21.54
2019-01-10T15:20:13.590Z,21.54
2019-01-10T15:22:42.041Z,21.54
2019-01-10T15:25:10.470Z,21.52
2019-01-10T15:27:38.844Z,21.51
2019-01-10T15:30:10.276Z,21.53
2019-01-10T15:32:38.666Z,21.52
2019-01-10T15:35:07.984Z,21.51
2019-01-10T15:37:36.360Z,21.48
2019-01-10T15:40:07.783Z,21.49
2019-01-10T15:42:36.163Z,21.50
2019-01-10T15:45:06.179Z,21.48
2019-01-10T15:47:34.563Z,21.46
2019-01-10T15:50:03.097Z,21.44
2019-01-10T15:52:31.475Z,21.42
2019-01-10T15:55:00.897Z,21.41
2019-01-10T15:57:29.248Z,21.41
2019-01-10T15:59:57.870Z,21.41
2019-01-10T16:02:26.244Z,21.40
2019-01-10T16:04:54.623Z,21.39
2019-01-10T16:07:23.009Z,21.37
2019-01-10T16:09:51.369Z,21.35
2019-01-10T16:12:19.741Z,21.36
2019-01-10T16:14:48.104Z,21.37
2019-01-10T16:17:16.492Z,21.33
2019-01-10T16:19:44.853Z,21.33
2019-01-10T16:22:13.231Z,21.35
2019-01-10T16:24:41.596Z,21.34
2019-01-10T16:27:09.959Z,21.35
2019-01-10T16:29:38.337Z,21.32
2019-01-10T16:32:06.704Z,21.31
2019-01-10T16:34:35.098Z,21.34
2019-01-10T16:37:03.463Z,21.37
2019-01-10T16:39:31.838Z,21.38
2019-01-10T16:42:00.208Z,21.39
2019-01-10T16:44:28.597Z,21.39
2019-01-10T16:46:56.956Z,21.38
2019-01-10T16:49:25.328Z,21.36
2019-01-10T16:51:53.702Z,21.34
2019-01-10T16:54:22.095Z,21.33
2019-01-10T16:56:50.450Z,21.31
2019-01-10T16:59:18.838Z,21.31
2019-01-10T17:01:47.217Z,21.32
2019-01-10T17:04:15.596Z,21.31
2019-01-10T17:06:43.967Z,21.29
2019-01-10T17:09:17.591Z,21.30
2019-01-10T17:11:42.450Z,21.30
2019-01-10T17:14:10.836Z,21.28
2019-01-10T17:16:39.204Z,21.28
2019-01-10T17:19:07.600Z,21.28
2019-01-10T17:21:35.966Z,21.26
2019-01-10T17:24:04.517Z,21.25
2019-01-10T17:26:32.881Z,21.24
2019-01-10T17:29:01.265Z,21.24
2019-01-10T17:31:29.631Z,21.22
2019-01-10T17:33:58.938Z,21.22
2019-01-10T17:36:27.301Z,21.22
2019-01-10T17:38:55.676Z,21.22
2019-01-10T17:41:24.052Z,21.22
2019-01-10T17:43:52.436Z,21.23
2019-01-10T17:46:20.847Z,21.21
2019-01-10T17:48:49.220Z,21.21
2019-01-10T17:51:17.642Z,21.23
2019-01-10T17:53:46.031Z,21.23
2019-01-10T17:56:14.394Z,21.23
2019-01-10T17:58:42.767Z,21.22
2019-01-10T18:01:11.142Z,21.20
2019-01-10T18:03:40.364Z,21.20
2019-01-10T18:06:08.985Z,21.20
2019-01-10T18:08:37.425Z,21.17
2019-01-10T18:11:05.940Z,21.19
2019-01-10T18:13:34.319Z,21.19
2019-01-10T18:16:02.711Z,21.18
2019-01-10T18:18:31.077Z,21.19
2019-01-10T18:20:59.465Z,21.20
2019-01-10T18:23:27.837Z,21.20
2019-01-10T18:25:56.229Z,21.22
2019-01-10T18:28:24.578Z,21.22
2019-01-10T18:30:52.961Z,21.22
2019-01-10T18:33:21.333Z,21.22
2019-01-10T18:35:49.705Z,21.21
2019-01-10T18:38:18.103Z,21.20
2019-01-10T18:40:46.453Z,21.21
2019-01-10T18:43:14.834Z,21.19
2019-01-10T18:45:43.210Z,21.20
2019-01-10T18:48:11.578Z,21.18
2019-01-10T18:50:39.956Z,21.16
2019-01-10T18:53:08.335Z,21.15
2019-01-10T18:55:36.714Z,21.16
2019-01-10T18:58:05.420Z,21.16
2019-01-10T19:00:33.814Z,21.17
2019-01-10T19:03:02.183Z,21.16
2019-01-10T19:05:30.625Z,21.16
2019-01-10T19:07:59.788Z,21.16
2019-01-10T19:10:28.139Z,21.16
2019-01-10T19:12:56.502Z,21.14
2019-01-10T19:15:24.945Z,21.15
2019-01-10T19:17:53.314Z,21.16
2019-01-10T19:20:23.748Z,21.16
2019-01-10T19:22:52.554Z,21.19
2019-01-10T19:25:21.012Z,21.19
2019-01-10T19:27:49.381Z,21.20
2019-01-10T19:30:20.439Z,21.17
2019-01-10T19:32:48.883Z,21.14
2019-01-10T19:35:17.250Z,21.15
2019-01-10T19:37:45.627Z,21.17
2019-01-10T19:40:16.831Z,21.14
2019-01-10T19:42:45.297Z,21.12
2019-01-10T19:45:15.899Z,21.08
2019-01-10T19:47:44.273Z,21.05
2019-01-10T19:50:15.874Z,21.07
2019-01-10T19:52:44.583Z,21.08
2019-01-10T19:55:14.895Z,21.07
2019-01-10T19:57:43.288Z,21.05
2019-01-10T20:00:17.470Z,21.04
2019-01-10T20:02:46.221Z,21.05
2019-01-10T20:05:14.971Z,21.04
2019-01-10T20:07:43.352Z,21.05
2019-01-10T20:10:14.268Z,21.04
2019-01-10T20:12:42.659Z,21.03
2019-01-10T20:15:11.379Z,21.03
2019-01-10T20:17:39.782Z,21.03
2019-01-10T20:20:14.530Z,21.04
2019-01-10T20:22:42.924Z,21.04
2019-01-10T20:25:11.308Z,21.04
2019-01-10T20:27:39.689Z,21.03
2019-01-10T20:30:14.456Z,21.02
2019-01-10T20:32:42.906Z,21.02
2019-01-10T20:35:11.424Z,21.01
2019-01-10T20:37:39.817Z,21.01
2019-01-10T20:40:11.318Z,21.00
2019-01-10T20:42:39.709Z,21.01
2019-01-10T20:45:09.728Z,20.98
2019-01-10T20:47:38.116Z,20.97
2019-01-10T20:50:12.108Z,20.95
2019-01-10T20:52:40.486Z,20.95
2019-01-10T20:55:12.030Z,20.95
2019-01-10T20:57:40.416Z,20.94
2019-01-10T21:00:12.108Z,20.94
2019-01-10T21:02:40.509Z,20.92
2019-01-10T21:05:08.939Z,20.92
2019-01-10T21:07:37.322Z,20.90
2019-01-10T21:10:08.756Z,20.88
2019-01-10T21:12:37.162Z,20.87
2019-01-10T21:15:08.916Z,20.88
2019-01-10T21:17:37.297Z,20.86
2019-01-10T21:20:07.995Z,20.86
2019-01-10T21:22:36.362Z,20.83
2019-01-10T21:25:05.882Z,20.83
2019-01-10T21:27:34.258Z,20.82
2019-01-10T21:30:02.718Z,20.82
2019-01-10T21:32:31.191Z,20.82
2019-01-10T21:34:59.583Z,20.81
2019-01-10T21:37:27.944Z,20.79
2019-01-10T21:39:56.332Z,20.78
2019-01-10T21:42:24.715Z,20.77
2019-01-10T21:44:53.094Z,20.77
2019-01-10T21:47:21.476Z,20.77
2019-01-10T21:49:50.022Z,20.77
2019-01-10T21:52:18.390Z,20.75
2019-01-10T21:54:46.769Z,20.73
2019-01-10T21:57:15.139Z,20.74
2019-01-10T21:59:43.525Z,20.73
2019-01-10T22:02:11.890Z,20.71
2019-01-10T22:04:40.265Z,20.70
2019-01-10T22:07:08.637Z,20.70
2019-01-10T22:09:37.012Z,20.70
2019-01-10T22:12:05.377Z,20.68
2019-01-10T22:14:33.756Z,20.68
2019-01-10T22:17:02.183Z,20.68
2019-01-10T22:19:30.598Z,20.67
2019-01-10T22:21:58.982Z,20.66
2019-01-10T22:24:27.413Z,20.64
2019-01-10T22:26:55.896Z,20.65
2019-01-10T22:29:24.344Z,20.65
2019-01-10T22:31:52.785Z,20.62
2019-01-10T22:34:21.232Z,20.60
2019-01-10T22:36:49.606Z,20.60
2019-01-10T22:39:18.000Z,20.60
2019-01-10T22:41:46.406Z,20.60
2019-01-10T22:44:14.778Z,20.58
2019-01-10T22:46:43.145Z,20.57
2019-01-10T22:49:11.520Z,20.57
2019-01-10T22:51:39.951Z,20.57
2019-01-10T22:54:08.325Z,20.57
2019-01-10T22:56:36.714Z,20.57
2019-01-10T22:59:05.134Z,20.55
2019-01-10T23:01:37.365Z,20.53
2019-01-10T23:04:06.278Z,20.53
2019-01-10T23:06:34.649Z,20.52
2019-01-10T23:09:04.053Z,20.51
2019-01-10T23:11:32.442Z,20.52
2019-01-10T23:14:00.868Z,20.50
2019-01-10T23:16:29.597Z,20.50
2019-01-10T23:18:58.035Z,20.50
2019-01-10T23:21:26.813Z,20.49
2019-01-10T23:24:00.256Z,20.48
2019-01-10T23:26:28.644Z,20.48
2019-01-10T23:28:57.006Z,20.48
2019-01-10T23:31:25.379Z,20.46
2019-01-10T23:33:53.748Z,20.45
2019-01-10T23:36:22.137Z,20.45
2019-01-10T23:39:12.992Z,20.44
2019-01-10T23:41:41.369Z,20.45
2019-01-10T23:44:09.732Z,20.43
2019-01-10T23:46:38.109Z,20.42
2019-01-10T23:49:06.481Z,20.41
2019-01-10T23:51:34.858Z,20.41
2019-01-10T23:54:03.380Z,20.41
2019-01-10T23:56:33.924Z,20.39
2019-01-10T23:59:02.656Z,20.38
